createdAt,value
2017-08-26T00:00:16.176Z,0.00
2017-08-26T00:01:16.173Z,0.00
2017-08-26T00:02:16.167Z,0.00
2017-08-26T00:03:16.167Z,0.00
2017-08-26T00:04:16.160Z,0.00
2017-08-26T00:05:16.162Z,0.00
2017-08-26T00:06:16.160Z,0.00
2017-08-26T00:07:16.158Z,0.00
2017-08-26T00:08:16.152Z,0.00
2017-08-26T00:09:16.147Z,0.00
2017-08-26T00:10:16.145Z,0.00
2017-08-26T00:11:16.139Z,0.00
2017-08-26T00:12:16.138Z,0.00
2017-08-26T00:13:16.130Z,0.00
2017-08-26T00:14:16.124Z,0.00
2017-08-26T00:15:16.124Z,0.00
2017-08-26T00:16:16.116Z,0.00
2017-08-26T00:17:16.114Z,0.00
2017-08-26T00:18:16.113Z,0.00
2017-08-26T00:19:16.110Z,0.00
2017-08-26T00:20:16.106Z,0.00
2017-08-26T00:21:16.105Z,0.00
2017-08-26T00:22:16.099Z,0.00
2017-08-26T00:23:16.098Z,0.00
2017-08-26T00:24:16.093Z,0.00
2017-08-26T00:25:16.090Z,0.00
2017-08-26T00:26:16.086Z,0.00
2017-08-26T00:27:16.084Z,0.00
2017-08-26T00:28:16.077Z,0.00
2017-08-26T00:29:16.069Z,0.00
2017-08-26T00:30:16.072Z,0.00
2017-08-26T00:31:16.063Z,0.00
2017-08-26T00:32:16.063Z,0.00
2017-08-26T00:33:16.060Z,0.00
2017-08-26T00:34:16.056Z,0.00
2017-08-26T00:35:16.055Z,0.00
2017-08-26T00:36:16.047Z,0.00
2017-08-26T00:37:16.039Z,0.00
2017-08-26T00:38:16.039Z,0.00
2017-08-26T00:39:16.034Z,0.00
2017-08-26T00:40:16.030Z,0.00
2017-08-26T00:41:16.025Z,0.00
2017-08-26T00:42:16.026Z,0.00
2017-08-26T00:43:16.017Z,0.00
2017-08-26T00:44:16.016Z,0.00
2017-08-26T00:45:16.015Z,0.00
2017-08-26T00:46:16.010Z,0.00
2017-08-26T00:47:16.009Z,0.00
2017-08-26T00:48:16.002Z,0.00
2017-08-26T00:49:15.998Z,0.00
2017-08-26T00:50:15.997Z,0.00
2017-08-26T00:51:15.991Z,0.00
2017-08-26T00:52:15.988Z,0.00
2017-08-26T00:53:15.980Z,0.00
2017-08-26T00:54:15.976Z,0.00
2017-08-26T00:55:15.972Z,0.00
2017-08-26T00:56:15.966Z,0.00
2017-08-26T00:57:15.964Z,0.00
2017-08-26T00:58:15.957Z,0.00
2017-08-26T00:59:15.957Z,0.00
2017-08-26T01:00:15.949Z,0.00
2017-08-26T01:01:15.953Z,0.00
2017-08-26T01:02:15.949Z,0.00
2017-08-26T01:03:15.950Z,0.00
2017-08-26T01:04:15.940Z,0.00
2017-08-26T01:05:15.936Z,0.00
2017-08-26T01:06:15.930Z,0.00
2017-08-26T01:07:15.927Z,0.00
2017-08-26T01:08:15.922Z,0.00
2017-08-26T01:09:15.914Z,0.00
2017-08-26T01:10:15.912Z,0.00
2017-08-26T01:11:15.905Z,0.00
2017-08-26T01:12:15.903Z,0.00
2017-08-26T01:13:15.897Z,0.00
2017-08-26T01:14:15.894Z,0.00
2017-08-26T01:15:15.889Z,0.00
2017-08-26T01:16:15.887Z,0.00
2017-08-26T01:17:15.886Z,0.00
2017-08-26T01:18:15.883Z,0.00
2017-08-26T01:19:15.879Z,0.00
2017-08-26T01:20:15.871Z,0.00
2017-08-26T01:21:15.866Z,0.00
2017-08-26T01:22:15.865Z,0.00
2017-08-26T01:23:15.860Z,0.00
2017-08-26T01:24:15.855Z,0.00
2017-08-26T01:25:15.850Z,0.00
2017-08-26T01:26:15.842Z,0.00
2017-08-26T01:27:15.841Z,0.00
2017-08-26T01:28:15.843Z,0.00
2017-08-26T01:29:15.832Z,0.00
2017-08-26T01:30:15.826Z,0.00
2017-08-26T01:31:15.828Z,0.00
2017-08-26T01:32:15.822Z,0.00
2017-08-26T01:33:15.816Z,0.00
2017-08-26T01:34:15.814Z,0.00
2017-08-26T01:35:15.809Z,0.00
2017-08-26T01:36:15.807Z,0.00
2017-08-26T01:37:15.801Z,0.00
2017-08-26T01:38:15.802Z,0.00
2017-08-26T01:39:15.798Z,0.00
2017-08-26T01:40:15.788Z,0.00
2017-08-26T01:41:15.783Z,0.00
2017-08-26T01:42:15.775Z,0.00
2017-08-26T01:43:15.774Z,0.00
2017-08-26T01:44:15.765Z,0.00
2017-08-26T01:45:15.763Z,0.00
2017-08-26T01:46:15.757Z,0.00
2017-08-26T01:47:15.755Z,0.00
2017-08-26T01:48:15.750Z,0.00
2017-08-26T01:49:15.749Z,0.00
2017-08-26T01:50:15.746Z,0.00
2017-08-26T01:51:15.742Z,0.00
2017-08-26T01:52:15.737Z,0.00
2017-08-26T01:53:15.734Z,0.00
2017-08-26T01:54:15.727Z,0.00
2017-08-26T01:55:15.726Z,0.00
2017-08-26T01:56:15.719Z,0.00
2017-08-26T01:57:15.710Z,0.00
2017-08-26T01:58:15.708Z,0.00
2017-08-26T01:59:15.703Z,0.00
2017-08-26T02:00:15.698Z,0.00
2017-08-26T02:01:15.694Z,0.00
2017-08-26T02:02:15.692Z,0.00
2017-08-26T02:03:15.685Z,0.00
2017-08-26T02:04:15.681Z,0.00
2017-08-26T02:05:15.682Z,0.00
2017-08-26T02:06:15.687Z,0.00
2017-08-26T02:07:15.674Z,0.00
2017-08-26T02:08:15.668Z,0.00
2017-08-26T02:09:15.663Z,0.00
2017-08-26T02:10:15.661Z,0.00
2017-08-26T02:11:15.660Z,0.00
2017-08-26T02:12:15.651Z,0.00
2017-08-26T02:13:15.642Z,0.00
2017-08-26T02:14:15.641Z,0.00
2017-08-26T02:15:15.634Z,0.00
2017-08-26T02:16:15.631Z,0.00
2017-08-26T02:17:15.625Z,0.00
2017-08-26T02:18:15.618Z,0.00
2017-08-26T02:19:15.617Z,0.00
2017-08-26T02:20:15.610Z,0.00
2017-08-26T02:21:15.609Z,0.00
2017-08-26T02:22:15.605Z,0.00
2017-08-26T02:23:15.600Z,0.00
2017-08-26T02:24:15.598Z,0.00
2017-08-26T02:25:15.593Z,0.00
2017-08-26T02:26:15.587Z,0.00
2017-08-26T02:27:15.583Z,0.00
2017-08-26T02:28:15.576Z,0.00
2017-08-26T02:29:15.567Z,0.00
2017-08-26T02:30:15.565Z,0.00
2017-08-26T02:31:15.564Z,0.00
2017-08-26T02:32:15.556Z,0.00
2017-08-26T02:33:15.550Z,0.00
2017-08-26T02:34:15.546Z,0.00
2017-08-26T02:35:15.540Z,0.00
2017-08-26T02:36:15.536Z,0.00
2017-08-26T02:37:15.537Z,0.00
2017-08-26T02:38:15.531Z,0.00
2017-08-26T02:39:15.529Z,0.00
2017-08-26T02:40:15.520Z,0.00
2017-08-26T02:41:15.513Z,0.00
2017-08-26T02:42:15.523Z,0.00
2017-08-26T02:43:15.505Z,0.00
2017-08-26T02:44:15.499Z,0.00
2017-08-26T02:45:15.500Z,0.00
2017-08-26T02:46:15.494Z,0.00
2017-08-26T02:47:15.492Z,0.00
2017-08-26T02:48:15.484Z,0.00
2017-08-26T02:49:15.488Z,0.00
2017-08-26T02:50:15.475Z,0.00
2017-08-26T02:51:15.474Z,0.00
2017-08-26T02:52:15.466Z,0.00
2017-08-26T02:53:15.461Z,0.00
2017-08-26T02:54:15.456Z,0.00
2017-08-26T02:55:15.452Z,0.00
2017-08-26T02:56:15.445Z,0.00
2017-08-26T02:57:15.440Z,0.00
2017-08-26T02:58:15.434Z,0.00
2017-08-26T02:59:15.432Z,0.00
2017-08-26T03:00:15.425Z,0.00
2017-08-26T03:01:15.424Z,0.00
2017-08-26T03:02:15.421Z,0.00
2017-08-26T03:03:15.417Z,0.00
2017-08-26T03:04:15.413Z,0.00
2017-08-26T03:05:15.406Z,0.00
2017-08-26T03:06:15.404Z,0.00
2017-08-26T03:07:15.399Z,0.00
2017-08-26T03:08:15.396Z,0.00
2017-08-26T03:09:15.385Z,0.00
2017-08-26T03:10:15.379Z,0.00
2017-08-26T03:11:15.376Z,0.00
2017-08-26T03:12:15.370Z,0.00
2017-08-26T03:13:15.365Z,0.00
2017-08-26T03:14:15.363Z,0.00
2017-08-26T03:15:15.357Z,0.00
2017-08-26T03:16:15.353Z,0.00
2017-08-26T03:17:15.352Z,0.00
2017-08-26T03:18:15.349Z,0.00
2017-08-26T03:19:15.344Z,0.00
2017-08-26T03:20:15.337Z,0.00
2017-08-26T03:21:15.333Z,0.00
2017-08-26T03:22:15.331Z,0.00
2017-08-26T03:23:15.326Z,0.00
2017-08-26T03:24:15.318Z,0.00
2017-08-26T03:25:15.308Z,0.00
2017-08-26T03:26:15.315Z,0.00
2017-08-26T03:27:15.300Z,0.00
2017-08-26T03:28:15.312Z,0.00
2017-08-26T03:29:15.292Z,0.00
2017-08-26T03:30:15.287Z,0.00
2017-08-26T03:31:15.284Z,0.00
2017-08-26T03:32:15.282Z,0.00
2017-08-26T03:33:15.275Z,0.00
2017-08-26T03:34:15.272Z,0.00
2017-08-26T03:35:15.265Z,0.00
2017-08-26T03:36:15.263Z,0.00
2017-08-26T03:37:15.256Z,0.00
2017-08-26T03:38:15.254Z,0.00
2017-08-26T03:39:15.248Z,0.00
2017-08-26T03:40:15.242Z,0.00
2017-08-26T03:41:15.236Z,0.00
2017-08-26T03:42:15.228Z,0.00
2017-08-26T03:43:15.226Z,0.00
2017-08-26T03:44:15.227Z,0.00
2017-08-26T03:45:15.219Z,0.00
2017-08-26T03:46:15.216Z,0.00
2017-08-26T03:47:15.209Z,0.00
2017-08-26T03:48:15.206Z,0.00
2017-08-26T03:49:15.197Z,0.00
2017-08-26T03:50:15.190Z,0.00
2017-08-26T03:51:15.188Z,0.00
2017-08-26T03:52:15.180Z,0.00
2017-08-26T03:53:15.184Z,0.00
2017-08-26T03:54:15.171Z,0.00
2017-08-26T03:55:15.169Z,0.00
2017-08-26T03:56:15.160Z,0.00
2017-08-26T03:57:15.161Z,0.00
2017-08-26T03:58:15.158Z,0.00
2017-08-26T03:59:15.152Z,0.00
2017-08-26T04:00:15.146Z,0.00
2017-08-26T04:01:15.144Z,0.00
2017-08-26T04:02:15.136Z,0.00
2017-08-26T04:03:15.134Z,0.00
2017-08-26T04:04:15.127Z,0.00
2017-08-26T04:05:15.117Z,0.00
2017-08-26T04:06:15.116Z,4.00
2017-08-26T04:07:15.108Z,0.00
2017-08-26T04:08:15.106Z,0.00
2017-08-26T04:09:15.099Z,4.00
2017-08-26T04:10:15.096Z,0.00
2017-08-26T04:11:15.090Z,4.00
2017-08-26T04:12:15.087Z,4.00
2017-08-26T04:13:15.091Z,4.00
2017-08-26T04:14:15.079Z,4.00
2017-08-26T04:15:15.077Z,8.00
2017-08-26T04:16:15.069Z,8.00
2017-08-26T04:17:15.065Z,8.00
2017-08-26T04:18:15.063Z,8.00
2017-08-26T04:19:15.056Z,12.00
2017-08-26T04:20:15.052Z,12.00
2017-08-26T04:21:15.042Z,16.00
2017-08-26T04:22:15.039Z,20.00
2017-08-26T04:23:15.035Z,24.00
2017-08-26T04:24:15.027Z,24.00
2017-08-26T04:25:15.024Z,32.00
2017-08-26T04:26:15.017Z,36.00
2017-08-26T04:27:15.014Z,36.00
2017-08-26T04:28:15.008Z,36.00
2017-08-26T04:29:15.006Z,40.00
2017-08-26T04:30:15.004Z,40.00
2017-08-26T04:31:14.997Z,44.00
2017-08-26T04:32:14.995Z,52.00
2017-08-26T04:33:14.989Z,56.00
2017-08-26T04:34:14.983Z,64.00
2017-08-26T04:35:14.981Z,68.00
2017-08-26T04:36:14.972Z,72.00
2017-08-26T04:37:14.965Z,76.00
2017-08-26T04:38:14.963Z,84.00
2017-08-26T04:39:14.960Z,88.00
2017-08-26T04:40:14.952Z,96.00
2017-08-26T04:41:14.945Z,108.00
2017-08-26T04:42:14.943Z,128.00
2017-08-26T04:43:14.950Z,156.00
2017-08-26T04:44:14.932Z,172.00
2017-08-26T04:45:14.932Z,192.00
2017-08-26T04:46:14.925Z,204.00
2017-08-26T04:47:14.923Z,200.00
2017-08-26T04:48:14.915Z,228.00
2017-08-26T04:49:14.905Z,284.00
2017-08-26T04:50:14.903Z,308.00
2017-08-26T04:51:14.897Z,296.00
2017-08-26T04:52:14.893Z,252.00
2017-08-26T04:53:14.893Z,256.00
2017-08-26T04:54:14.886Z,332.00
2017-08-26T04:55:14.885Z,416.00
2017-08-26T04:56:14.878Z,452.00
2017-08-26T04:57:14.874Z,436.00
2017-08-26T04:58:14.867Z,400.00
2017-08-26T04:59:14.863Z,368.00
2017-08-26T05:00:14.856Z,364.00
2017-08-26T05:01:14.847Z,424.00
2017-08-26T05:02:14.844Z,504.00
2017-08-26T05:03:14.838Z,548.00
2017-08-26T05:04:14.835Z,540.00
2017-08-26T05:05:14.831Z,508.00
2017-08-26T05:06:14.823Z,456.00
2017-08-26T05:07:14.821Z,428.00
2017-08-26T05:08:14.814Z,456.00
2017-08-26T05:09:14.815Z,500.00
2017-08-26T05:10:14.822Z,508.00
2017-08-26T05:11:14.805Z,548.00
2017-08-26T05:12:14.801Z,584.00
2017-08-26T05:13:14.793Z,664.00
2017-08-26T05:14:14.792Z,696.00
2017-08-26T05:15:14.786Z,700.00
2017-08-26T05:16:14.782Z,712.00
2017-08-26T05:17:14.774Z,752.00
2017-08-26T05:18:14.766Z,812.00
2017-08-26T05:19:14.765Z,900.00
2017-08-26T05:20:14.758Z,1092.00
2017-08-26T05:21:14.754Z,1020.00
2017-08-26T05:22:14.757Z,1064.00
2017-08-26T05:23:14.743Z,1092.00
2017-08-26T05:24:14.742Z,1132.00
2017-08-26T05:25:14.741Z,1260.00
2017-08-26T05:26:14.735Z,1244.00
2017-08-26T05:27:14.733Z,1120.00
2017-08-26T05:28:14.726Z,1084.00
2017-08-26T05:29:14.724Z,1128.00
2017-08-26T05:30:14.718Z,1224.00
2017-08-26T05:31:14.719Z,1272.00
2017-08-26T05:32:14.709Z,1244.00
2017-08-26T05:33:14.700Z,1268.00
2017-08-26T05:34:14.700Z,1364.00
2017-08-26T05:35:14.692Z,1348.00
2017-08-26T05:36:14.688Z,1420.00
2017-08-26T05:37:14.684Z,1640.00
2017-08-26T05:38:14.679Z,1584.00
2017-08-26T05:39:14.678Z,1620.00
2017-08-26T05:40:14.669Z,1720.00
2017-08-26T05:41:14.671Z,1856.00
2017-08-26T05:42:14.668Z,2036.00
2017-08-26T05:43:14.666Z,1896.00
2017-08-26T05:44:14.660Z,1756.00
2017-08-26T05:45:14.654Z,1712.00
2017-08-26T05:46:14.652Z,1776.00
2017-08-26T05:47:14.646Z,1908.00
2017-08-26T05:48:14.642Z,2108.00
2017-08-26T05:49:14.634Z,2024.00
2017-08-26T05:50:14.629Z,1880.00
2017-08-26T05:51:14.629Z,1752.00
2017-08-26T05:52:14.621Z,1620.00
2017-08-26T05:53:14.624Z,1800.00
2017-08-26T05:54:14.618Z,2212.00
2017-08-26T05:55:14.616Z,2420.00
2017-08-26T05:56:14.609Z,2220.00
2017-08-26T05:57:14.603Z,2160.00
2017-08-26T05:58:14.600Z,1900.00
2017-08-26T05:59:14.596Z,1688.00
2017-08-26T06:00:14.595Z,1720.00
2017-08-26T06:01:14.586Z,1708.00
2017-08-26T06:02:14.585Z,1708.00
2017-08-26T06:03:14.580Z,1748.00
2017-08-26T06:04:14.577Z,1780.00
2017-08-26T06:05:14.579Z,1880.00
2017-08-26T06:06:14.573Z,2132.00
2017-08-26T06:07:14.571Z,2464.00
2017-08-26T06:08:14.565Z,2500.00
2017-08-26T06:09:14.562Z,2640.00
2017-08-26T06:10:14.578Z,3056.00
2017-08-26T06:11:14.555Z,3048.00
2017-08-26T06:12:14.552Z,2876.00
2017-08-26T06:13:14.545Z,3396.00
2017-08-26T06:14:14.540Z,3640.00
2017-08-26T06:15:14.539Z,3384.00
2017-08-26T06:16:14.532Z,3528.00
2017-08-26T06:17:14.530Z,3488.00
2017-08-26T06:18:14.526Z,3216.00
2017-08-26T06:19:14.524Z,3204.00
2017-08-26T06:20:14.519Z,3196.00
2017-08-26T06:21:14.520Z,3508.00
2017-08-26T06:22:14.519Z,4232.00
2017-08-26T06:23:14.514Z,3800.00
2017-08-26T06:24:14.518Z,3824.00
2017-08-26T06:25:14.508Z,4436.00
2017-08-26T06:26:14.504Z,3684.00
2017-08-26T06:27:14.503Z,3400.00
2017-08-26T06:28:14.497Z,3780.00
2017-08-26T06:29:14.490Z,3944.00
2017-08-26T06:30:14.488Z,4164.00
2017-08-26T06:31:14.484Z,4272.00
2017-08-26T06:32:14.482Z,4172.00
2017-08-26T06:33:14.490Z,4120.00
2017-08-26T06:34:14.477Z,3828.00
2017-08-26T06:35:14.472Z,3768.00
2017-08-26T06:36:14.471Z,3660.00
2017-08-26T06:37:14.472Z,3468.00
2017-08-26T06:38:14.467Z,3452.00
2017-08-26T06:39:14.466Z,3496.00
2017-08-26T06:40:14.460Z,3620.00
2017-08-26T06:41:14.458Z,3828.00
2017-08-26T06:42:14.463Z,4096.00
2017-08-26T06:43:14.451Z,4076.00
2017-08-26T06:44:14.450Z,3884.00
2017-08-26T06:45:14.443Z,3924.00
2017-08-26T06:46:14.439Z,4108.00
2017-08-26T06:47:14.441Z,4704.00
2017-08-26T06:48:14.433Z,5452.00
2017-08-26T06:49:14.432Z,5356.00
2017-08-26T06:50:14.427Z,5140.00
2017-08-26T06:51:14.426Z,4928.00
2017-08-26T06:52:14.422Z,4720.00
2017-08-26T06:53:14.424Z,4780.00
2017-08-26T06:54:14.423Z,5140.00
2017-08-26T06:55:14.417Z,5064.00
2017-08-26T06:56:14.417Z,5316.00
2017-08-26T06:57:14.410Z,5392.00
2017-08-26T06:58:14.404Z,5628.00
2017-08-26T06:59:14.404Z,6520.00
2017-08-26T07:00:14.400Z,7612.00
2017-08-26T07:01:14.401Z,9140.00
2017-08-26T07:02:14.401Z,9212.00
2017-08-26T07:03:14.396Z,9356.00
2017-08-26T07:04:14.396Z,9020.00
2017-08-26T07:05:14.395Z,8564.00
2017-08-26T07:06:14.393Z,7372.00
2017-08-26T07:07:14.394Z,5928.00
2017-08-26T07:08:14.386Z,5572.00
2017-08-26T07:09:14.385Z,5884.00
2017-08-26T07:10:14.376Z,5792.00
2017-08-26T07:11:14.376Z,5420.00
2017-08-26T07:12:14.372Z,5624.00
2017-08-26T07:13:14.369Z,6324.00
2017-08-26T07:14:14.369Z,6372.00
2017-08-26T07:15:14.364Z,6824.00
2017-08-26T07:16:14.364Z,7196.00
2017-08-26T07:17:14.367Z,7156.00
2017-08-26T07:18:14.363Z,8032.00
2017-08-26T07:19:14.364Z,9096.00
2017-08-26T07:20:14.359Z,9908.00
2017-08-26T07:21:14.358Z,10128.00
2017-08-26T07:22:14.354Z,10256.00
2017-08-26T07:23:14.356Z,10500.00
2017-08-26T07:24:14.354Z,10740.00
2017-08-26T07:25:14.346Z,10540.00
2017-08-26T07:26:14.346Z,10216.00
2017-08-26T07:27:14.341Z,12096.00
2017-08-26T07:28:14.341Z,14384.00
2017-08-26T07:29:14.340Z,17312.00
2017-08-26T07:30:14.337Z,19616.00
2017-08-26T07:31:14.345Z,17792.00
2017-08-26T07:32:14.334Z,19328.00
2017-08-26T07:33:14.336Z,18496.00
2017-08-26T07:34:14.339Z,16480.00
2017-08-26T07:35:14.337Z,16096.00
2017-08-26T07:36:14.345Z,16096.00
2017-08-26T07:37:14.341Z,17280.00
2017-08-26T07:38:14.337Z,13428.00
2017-08-26T07:39:14.336Z,12700.00
2017-08-26T07:40:14.345Z,12220.00
2017-08-26T07:41:14.335Z,11880.00
2017-08-26T07:42:14.333Z,12424.00
2017-08-26T07:43:14.336Z,10596.00
2017-08-26T07:44:14.333Z,10064.00
2017-08-26T07:45:14.335Z,9792.00
2017-08-26T07:46:14.339Z,9756.00
2017-08-26T07:47:14.338Z,9660.00
2017-08-26T07:48:14.341Z,9668.00
2017-08-26T07:49:14.346Z,9540.00
2017-08-26T07:50:14.344Z,9260.00
2017-08-26T07:51:14.347Z,9288.00
2017-08-26T07:52:14.346Z,9332.00
2017-08-26T07:53:14.348Z,9508.00
2017-08-26T07:54:14.348Z,9280.00
2017-08-26T07:55:14.350Z,8532.00
2017-08-26T07:56:14.348Z,8000.00
2017-08-26T07:57:14.344Z,8436.00
2017-08-26T07:58:14.362Z,9452.00
2017-08-26T07:59:14.346Z,9504.00
2017-08-26T08:00:14.349Z,9196.00
2017-08-26T08:01:14.353Z,8912.00
2017-08-26T08:02:14.351Z,8820.00
2017-08-26T08:03:14.355Z,8420.00
2017-08-26T08:04:14.351Z,7732.00
2017-08-26T08:05:14.348Z,7048.00
2017-08-26T08:06:14.351Z,7076.00
2017-08-26T08:07:14.349Z,7404.00
2017-08-26T08:08:14.350Z,7048.00
2017-08-26T08:09:14.349Z,6864.00
2017-08-26T08:10:14.351Z,6796.00
2017-08-26T08:11:14.350Z,6420.00
2017-08-26T08:12:14.350Z,6164.00
2017-08-26T08:13:14.355Z,6232.00
2017-08-26T08:14:14.353Z,6540.00
2017-08-26T08:15:14.356Z,6204.00
2017-08-26T08:16:14.353Z,5656.00
2017-08-26T08:17:14.355Z,5412.00
2017-08-26T08:18:14.355Z,5884.00
2017-08-26T08:19:14.353Z,6864.00
2017-08-26T08:20:14.356Z,8080.00
2017-08-26T08:21:14.349Z,9252.00
2017-08-26T08:22:14.348Z,8536.00
2017-08-26T08:23:14.350Z,7580.00
2017-08-26T08:24:14.347Z,8760.00
2017-08-26T08:25:14.348Z,9460.00
2017-08-26T08:26:14.347Z,9372.00
2017-08-26T08:27:14.349Z,8580.00
2017-08-26T08:28:14.350Z,8484.00
2017-08-26T08:29:14.350Z,7868.00
2017-08-26T08:30:14.351Z,8172.00
2017-08-26T08:31:14.351Z,11240.00
2017-08-26T08:32:14.351Z,13256.00
2017-08-26T08:33:14.352Z,12856.00
2017-08-26T08:34:14.349Z,13340.00
2017-08-26T08:35:14.352Z,13376.00
2017-08-26T08:36:14.349Z,13984.00
2017-08-26T08:37:14.344Z,16800.00
2017-08-26T08:38:14.347Z,14588.00
2017-08-26T08:39:14.345Z,13640.00
2017-08-26T08:40:14.346Z,13360.00
2017-08-26T08:41:14.351Z,15208.00
2017-08-26T08:42:14.349Z,15488.00
2017-08-26T08:43:14.346Z,16800.00
2017-08-26T08:44:14.350Z,12160.00
2017-08-26T08:45:14.355Z,9780.00
2017-08-26T08:46:14.353Z,8972.00
2017-08-26T08:47:14.356Z,8964.00
2017-08-26T08:48:14.355Z,9908.00
2017-08-26T08:49:14.357Z,10680.00
2017-08-26T08:50:14.359Z,10928.00
2017-08-26T08:51:14.360Z,10224.00
2017-08-26T08:52:14.372Z,9068.00
2017-08-26T08:53:14.360Z,9196.00
2017-08-26T08:54:14.464Z,10120.00
2017-08-26T08:55:14.572Z,8804.00
2017-08-26T08:56:14.457Z,8996.00
2017-08-26T08:57:14.506Z,10480.00
2017-08-26T08:58:14.516Z,12776.00
2017-08-26T08:59:14.393Z,15112.00
2017-08-26T09:00:14.427Z,14244.00
2017-08-26T09:01:14.504Z,12792.00
2017-08-26T09:02:14.391Z,10180.00
2017-08-26T09:03:14.439Z,12580.00
2017-08-26T09:04:14.484Z,9400.00
2017-08-26T09:05:14.496Z,8740.00
2017-08-26T09:06:14.428Z,10040.00
2017-08-26T09:07:14.390Z,11396.00
2017-08-26T09:08:14.384Z,13372.00
2017-08-26T09:09:14.391Z,14540.00
2017-08-26T09:10:14.456Z,13172.00
2017-08-26T09:11:14.422Z,11612.00
2017-08-26T09:12:14.428Z,10144.00
2017-08-26T09:13:14.401Z,10092.00
2017-08-26T09:14:14.704Z,11696.00
2017-08-26T09:15:14.470Z,13592.00
2017-08-26T09:16:14.485Z,12932.00
2017-08-26T09:17:14.421Z,10860.00
2017-08-26T09:18:14.522Z,10204.00
2017-08-26T09:19:14.528Z,10988.00
2017-08-26T09:20:14.447Z,14200.00
2017-08-26T09:21:14.494Z,16448.00
2017-08-26T09:22:14.436Z,14348.00
2017-08-26T09:23:14.502Z,11920.00
2017-08-26T09:24:14.443Z,10312.00
2017-08-26T09:25:14.532Z,9964.00
2017-08-26T09:26:14.480Z,10912.00
2017-08-26T09:27:14.454Z,11600.00
2017-08-26T09:28:14.431Z,12232.00
2017-08-26T09:29:14.430Z,15348.00
2017-08-26T09:30:14.438Z,16960.00
2017-08-26T09:31:14.439Z,15492.00
2017-08-26T09:32:14.550Z,13644.00
2017-08-26T09:33:14.496Z,12240.00
2017-08-26T09:34:14.504Z,11136.00
2017-08-26T09:35:14.483Z,10428.00
2017-08-26T09:36:14.576Z,9844.00
2017-08-26T09:37:14.502Z,8588.00
2017-08-26T09:38:14.550Z,7904.00
2017-08-26T09:39:14.510Z,7576.00
2017-08-26T09:40:14.524Z,7760.00
2017-08-26T09:41:14.612Z,8504.00
2017-08-26T09:42:14.492Z,9012.00
2017-08-26T09:43:14.570Z,9916.00
2017-08-26T09:44:14.567Z,10808.00
2017-08-26T09:45:14.469Z,10184.00
2017-08-26T09:46:14.469Z,9524.00
2017-08-26T09:47:14.475Z,9088.00
2017-08-26T09:48:14.488Z,8984.00
2017-08-26T09:49:14.580Z,8980.00
2017-08-26T09:50:14.559Z,9388.00
2017-08-26T09:51:14.479Z,9576.00
2017-08-26T09:52:14.557Z,9392.00
2017-08-26T09:53:14.546Z,9168.00
2017-08-26T09:54:14.481Z,9112.00
2017-08-26T09:55:14.487Z,9892.00
2017-08-26T09:56:14.490Z,10892.00
2017-08-26T09:57:14.503Z,11180.00
2017-08-26T09:58:14.490Z,10020.00
2017-08-26T09:59:14.495Z,9416.00
2017-08-26T10:00:14.499Z,10060.00
2017-08-26T10:01:14.497Z,10868.00
2017-08-26T10:02:14.498Z,10544.00
2017-08-26T10:03:14.502Z,10492.00
2017-08-26T10:04:14.502Z,12928.00
2017-08-26T10:05:14.498Z,13124.00
2017-08-26T10:06:14.503Z,12824.00
2017-08-26T10:07:14.503Z,11556.00
2017-08-26T10:08:14.507Z,11676.00
2017-08-26T10:09:14.506Z,12772.00
2017-08-26T10:10:14.511Z,11572.00
2017-08-26T10:11:14.514Z,10896.00
2017-08-26T10:12:14.515Z,10896.00
2017-08-26T10:13:14.520Z,10920.00
2017-08-26T10:14:14.521Z,9968.00
2017-08-26T10:15:14.526Z,8980.00
2017-08-26T10:16:14.526Z,8548.00
2017-08-26T10:17:14.527Z,8932.00
2017-08-26T10:18:14.530Z,9624.00
2017-08-26T10:19:14.534Z,10220.00
2017-08-26T10:20:14.537Z,10292.00
2017-08-26T10:21:14.531Z,10444.00
2017-08-26T10:22:14.536Z,10092.00
2017-08-26T10:23:14.537Z,10372.00
2017-08-26T10:24:14.540Z,12156.00
2017-08-26T10:25:14.541Z,11108.00
2017-08-26T10:26:14.543Z,11856.00
2017-08-26T10:27:14.549Z,12280.00
2017-08-26T10:28:14.545Z,11724.00
2017-08-26T10:29:14.553Z,11492.00
2017-08-26T10:30:14.557Z,11256.00
2017-08-26T10:31:14.558Z,11324.00
2017-08-26T10:32:14.561Z,11152.00
2017-08-26T10:33:14.566Z,11024.00
2017-08-26T10:34:14.566Z,10916.00
2017-08-26T10:35:14.566Z,10764.00
2017-08-26T10:36:14.570Z,10492.00
2017-08-26T10:37:14.572Z,10168.00
2017-08-26T10:38:14.569Z,10416.00
2017-08-26T10:39:14.574Z,10660.00
2017-08-26T10:40:14.574Z,11036.00
2017-08-26T10:41:14.576Z,11336.00
2017-08-26T10:42:14.582Z,11336.00
2017-08-26T10:43:14.588Z,10884.00
2017-08-26T10:44:14.587Z,10540.00
2017-08-26T10:45:14.592Z,10444.00
2017-08-26T10:46:14.593Z,10764.00
2017-08-26T10:47:14.598Z,11656.00
2017-08-26T10:48:14.598Z,12208.00
2017-08-26T10:49:14.603Z,12184.00
2017-08-26T10:50:14.606Z,11896.00
2017-08-26T10:51:14.608Z,11988.00
2017-08-26T10:52:14.609Z,12816.00
2017-08-26T10:53:14.606Z,12568.00
2017-08-26T10:54:14.612Z,12940.00
2017-08-26T10:55:14.612Z,13580.00
2017-08-26T10:56:14.617Z,14100.00
2017-08-26T10:57:14.618Z,14620.00
2017-08-26T10:58:14.621Z,14876.00
2017-08-26T10:59:14.625Z,14648.00
2017-08-26T11:00:14.626Z,14716.00
2017-08-26T11:01:14.633Z,15096.00
2017-08-26T11:02:14.645Z,21504.00
2017-08-26T11:03:14.639Z,15692.00
2017-08-26T11:04:14.644Z,15792.00
2017-08-26T11:05:14.644Z,15056.00
2017-08-26T11:06:14.649Z,14752.00
2017-08-26T11:07:14.651Z,13948.00
2017-08-26T11:08:14.655Z,13644.00
2017-08-26T11:09:14.654Z,12960.00
2017-08-26T11:10:14.654Z,12560.00
2017-08-26T11:11:14.661Z,15356.00
2017-08-26T11:12:14.661Z,12720.00
2017-08-26T11:13:14.669Z,12320.00
2017-08-26T11:14:14.675Z,12228.00
2017-08-26T11:15:14.675Z,12472.00
2017-08-26T11:16:14.682Z,12792.00
2017-08-26T11:17:14.680Z,12380.00
2017-08-26T11:18:14.680Z,12292.00
2017-08-26T11:19:14.686Z,12600.00
2017-08-26T11:20:14.686Z,12536.00
2017-08-26T11:21:14.693Z,11940.00
2017-08-26T11:22:14.696Z,11456.00
2017-08-26T11:23:14.698Z,11316.00
2017-08-26T11:24:14.698Z,11360.00
2017-08-26T11:25:14.705Z,11380.00
2017-08-26T11:26:14.712Z,11968.00
2017-08-26T11:27:14.713Z,11852.00
2017-08-26T11:28:14.718Z,11756.00
2017-08-26T11:29:14.720Z,11968.00
2017-08-26T11:30:14.722Z,12264.00
2017-08-26T11:31:14.727Z,11700.00
2017-08-26T11:32:14.727Z,11204.00
2017-08-26T11:33:14.726Z,10916.00
2017-08-26T11:34:14.730Z,10912.00
2017-08-26T11:35:14.732Z,11524.00
2017-08-26T11:36:14.737Z,12800.00
2017-08-26T11:37:14.740Z,13384.00
2017-08-26T11:38:14.744Z,13452.00
2017-08-26T11:39:14.743Z,14016.00
2017-08-26T11:40:14.748Z,14060.00
2017-08-26T11:41:14.755Z,13000.00
2017-08-26T11:42:14.757Z,11668.00
2017-08-26T11:43:14.763Z,10952.00
2017-08-26T11:44:14.763Z,10552.00
2017-08-26T11:45:14.765Z,10408.00
2017-08-26T11:46:14.772Z,10928.00
2017-08-26T11:47:14.771Z,11748.00
2017-08-26T11:48:14.781Z,12428.00
2017-08-26T11:49:14.774Z,13288.00
2017-08-26T11:50:14.775Z,13048.00
2017-08-26T11:51:14.781Z,13332.00
2017-08-26T11:52:14.782Z,13116.00
2017-08-26T11:53:14.787Z,12928.00
2017-08-26T11:54:14.788Z,13188.00
2017-08-26T11:55:14.792Z,13568.00
2017-08-26T11:56:14.799Z,14224.00
2017-08-26T11:57:14.800Z,14284.00
2017-08-26T11:58:14.804Z,14740.00
2017-08-26T11:59:14.807Z,14996.00
2017-08-26T12:00:14.810Z,16960.00
2017-08-26T12:01:14.814Z,18944.00
2017-08-26T12:02:14.816Z,19264.00
2017-08-26T12:03:14.822Z,17728.00
2017-08-26T12:04:14.820Z,16384.00
2017-08-26T12:05:14.821Z,14928.00
2017-08-26T12:06:14.828Z,14080.00
2017-08-26T12:07:14.827Z,13408.00
2017-08-26T12:08:14.834Z,13152.00
2017-08-26T12:09:14.833Z,13336.00
2017-08-26T12:10:14.841Z,12308.00
2017-08-26T12:11:14.843Z,11300.00
2017-08-26T12:12:14.847Z,11108.00
2017-08-26T12:13:14.855Z,11120.00
2017-08-26T12:14:14.858Z,11556.00
2017-08-26T12:15:14.862Z,11656.00
2017-08-26T12:16:14.863Z,11412.00
2017-08-26T12:17:14.863Z,11220.00
2017-08-26T12:18:14.869Z,12836.00
2017-08-26T12:19:14.872Z,14208.00
2017-08-26T12:20:14.876Z,15736.00
2017-08-26T12:21:14.884Z,17568.00
2017-08-26T12:22:14.886Z,18208.00
2017-08-26T12:23:14.891Z,17600.00
2017-08-26T12:24:14.893Z,16208.00
2017-08-26T12:25:14.897Z,15752.00